Terminal Aerodrome Forecast
Issued by NWS

Home | Current Version | Previous Version | Text Only | Print | Product List | Glossary On
Versions: 1 2 3 4 5 6 7 8 9 10 11 12 13 14 15 16 17 18 19 20 21 22 23 24 25 26 27 28 29 30 31 32
682
FTUS41 KOKX 190540
TAFGON
TAF
KGON 190540Z 1906/2006 19005KT 4SM BR SCT005 OVC009
      TEMPO 1907/1910 1SM BR BKN005
     FM191100 VRB04KT 3SM BR BKN007
     FM191300 VRB05KT P6SM SCT007 BKN040
     FM191600 21009KT P6SM SCT040
     FM200400 23005KT P6SM FEW250=

USA.gov is the U.S. government's official web portal to all federal, state and local government web resources and services.